sensor_id;sensor_type;location;lat;lon;timestamp;pressure;altitude;pressure_sealevel;temperature;humidity
75072;BME280;63651;55.728;38.022;2023-07-13T00:02:24;98587.31;;;16.48;53.02
75072;BME280;63651;55.728;38.022;2023-07-13T00:07:25;98581.78;;;16.43;53.02
75072;BME280;63651;55.728;38.022;2023-07-13T00:12:30;98589.78;;;16.49;52.88
75072;BME280;63651;55.728;38.022;2023-07-13T00:17:31;98586.47;;;16.47;52.74
75072;BME280;63651;55.728;38.022;2023-07-13T00:22:32;98584.56;;;16.48;53.10
75072;BME280;63651;55.728;38.022;2023-07-13T00:27:34;98584.81;;;16.46;52.82
75072;BME280;63651;55.728;38.022;2023-07-13T00:32:35;98580.69;;;16.44;52.68
75072;BME280;63651;55.728;38.022;2023-07-13T00:37:36;98584.28;;;16.44;52.78
75072;BME280;63651;55.728;38.022;2023-07-13T00:42:37;98588.06;;;16.38;52.92
75072;BME280;63651;55.728;38.022;2023-07-13T00:47:39;98590.25;;;16.36;53.31
75072;BME280;63651;55.728;38.022;2023-07-13T00:52:43;98586.09;;;16.28;53.20
75072;BME280;63651;55.728;38.022;2023-07-13T00:57:45;98584.16;;;16.24;53.79
75072;BME280;63651;55.728;38.022;2023-07-13T01:02:47;98582.00;;;16.26;53.78
75072;BME280;63651;55.728;38.022;2023-07-13T01:07:50;98585.50;;;16.16;54.27
75072;BME280;63651;55.728;38.022;2023-07-13T01:12:53;98570.69;;;16.12;54.16
75072;BME280;63651;55.728;38.022;2023-07-13T01:17:55;98575.91;;;16.19;54.27
75072;BME280;63651;55.728;38.022;2023-07-13T01:22:56;98572.63;;;16.17;54.58
75072;BME280;63651;55.728;38.022;2023-07-13T01:27:57;98565.19;;;16.12;54.70
75072;BME280;63651;55.728;38.022;2023-07-13T01:32:58;98566.91;;;16.23;54.43
75072;BME280;63651;55.728;38.022;2023-07-13T01:37:59;98562.78;;;16.21;54.67
75072;BME280;63651;55.728;38.022;2023-07-13T01:43:02;98566.00;;;16.08;55.18
75072;BME280;63651;55.728;38.022;2023-07-13T01:48:04;98554.53;;;16.16;54.84
75072;BME280;63651;55.728;38.022;2023-07-13T01:53:07;98566.06;;;16.18;54.89
75072;BME280;63651;55.728;38.022;2023-07-13T01:58:09;98562.75;;;16.16;55.29
75072;BME280;63651;55.728;38.022;2023-07-13T02:03:10;98567.13;;;16.17;55.20
75072;BME280;63651;55.728;38.022;2023-07-13T02:08:11;98554.00;;;16.19;55.19
75072;BME280;63651;55.728;38.022;2023-07-13T02:13:12;98555.34;;;16.16;55.48
75072;BME280;63651;55.728;38.022;2023-07-13T02:18:13;98553.72;;;16.20;55.57
75072;BME280;63651;55.728;38.022;2023-07-13T02:23:17;98550.47;;;16.23;55.26
75072;BME280;63651;55.728;38.022;2023-07-13T02:28:18;98550.75;;;16.27;55.24
75072;BME280;63651;55.728;38.022;2023-07-13T02:33:19;98537.06;;;16.32;55.36
75072;BME280;63651;55.728;38.022;2023-07-13T02:38:20;98543.66;;;16.36;55.22
75072;BME280;63651;55.728;38.022;2023-07-13T02:43:21;98539.06;;;16.47;54.95
75072;BME280;63651;55.728;38.022;2023-07-13T02:48:22;98549.16;;;16.41;55.08
75072;BME280;63651;55.728;38.022;2023-07-13T02:53:23;98536.59;;;16.50;54.90
75072;BME280;63651;55.728;38.022;2023-07-13T02:58:24;98531.66;;;16.52;54.97
75072;BME280;63651;55.728;38.022;2023-07-13T03:03:26;98534.69;;;16.56;54.80
75072;BME280;63651;55.728;38.022;2023-07-13T03:08:28;98535.00;;;16.64;54.78
75072;BME280;63651;55.728;38.022;2023-07-13T03:13:29;98539.09;;;16.62;54.74
75072;BME280;63651;55.728;38.022;2023-07-13T03:18:30;98533.88;;;16.60;55.07
75072;BME280;63651;55.728;38.022;2023-07-13T03:23:31;98529.50;;;16.64;55.02
75072;BME280;63651;55.728;38.022;2023-07-13T03:28:32;98529.81;;;16.68;55.11
75072;BME280;63651;55.728;38.022;2023-07-13T03:33:33;98537.25;;;16.73;54.79
75072;BME280;63651;55.728;38.022;2023-07-13T03:38:34;98538.88;;;16.69;55.21
75072;BME280;63651;55.728;38.022;2023-07-13T03:43:35;98540.81;;;16.73;54.99
75072;BME280;63651;55.728;38.022;2023-07-13T03:48:36;98533.69;;;16.82;54.96
75072;BME280;63651;55.728;38.022;2023-07-13T03:53:39;98541.16;;;16.92;54.62
75072;BME280;63651;55.728;38.022;2023-07-13T03:58:42;98535.09;;;16.90;54.53
75072;BME280;63651;55.728;38.022;2023-07-13T04:03:43;98549.41;;;16.97;54.33
75072;BME280;63651;55.728;38.022;2023-07-13T04:08:45;98548.03;;;17.05;54.16
75072;BME280;63651;55.728;38.022;2023-07-13T04:13:47;98542.56;;;17.05;54.52
75072;BME280;63651;55.728;38.022;2023-07-13T04:18:49;98543.66;;;17.19;54.14
75072;BME280;63651;55.728;38.022;2023-07-13T04:23:50;98557.66;;;17.17;53.88
75072;BME280;63651;55.728;38.022;2023-07-13T04:28:51;98551.34;;;17.07;54.57
75072;BME280;63651;55.728;38.022;2023-07-13T04:33:52;98559.56;;;17.12;54.59
75072;BME280;63651;55.728;38.022;2023-07-13T04:38:54;98554.34;;;17.10;54.51
75072;BME280;63651;55.728;38.022;2023-07-13T04:43:55;98552.16;;;17.17;54.30
75072;BME280;63651;55.728;38.022;2023-07-13T04:48:56;98554.38;;;17.46;55.05
75072;BME280;63651;55.728;38.022;2023-07-13T04:53:57;98560.38;;;18.24;53.51
75072;BME280;63651;55.728;38.022;2023-07-13T04:58:58;98563.00;;;18.54;51.98
75072;BME280;63651;55.728;38.022;2023-07-13T05:03:59;98553.25;;;18.88;51.83
75072;BME280;63651;55.728;38.022;2023-07-13T05:09:00;98553.41;;;19.06;50.46
75072;BME280;63651;55.728;38.022;2023-07-13T05:14:01;98548.06;;;19.20;50.08
75072;BME280;63651;55.728;38.022;2023-07-13T05:19:02;98541.09;;;18.94;50.34
75072;BME280;63651;55.728;38.022;2023-07-13T05:24:06;98548.91;;;18.76;50.86
75072;BME280;63651;55.728;38.022;2023-07-13T05:29:07;98545.38;;;18.66;51.08
75072;BME280;63651;55.728;38.022;2023-07-13T05:34:08;98547.78;;;18.82;51.17
75072;BME280;63651;55.728;38.022;2023-07-13T05:39:09;98550.78;;;18.86;50.99
75072;BME280;63651;55.728;38.022;2023-07-13T05:44:12;98552.09;;;18.94;50.47
75072;BME280;63651;55.728;38.022;2023-07-13T05:49:13;98555.63;;;19.04;50.11
75072;BME280;63651;55.728;38.022;2023-07-13T05:54:14;98548.44;;;19.08;49.95
75072;BME280;63651;55.728;38.022;2023-07-13T05:59:15;98546.16;;;19.21;49.76
75072;BME280;63651;55.728;38.022;2023-07-13T06:04:16;98550.16;;;19.38;49.24
75072;BME280;63651;55.728;38.022;2023-07-13T06:09:17;98544.56;;;19.54;48.66
75072;BME280;63651;55.728;38.022;2023-07-13T06:14:18;98534.78;;;19.71;48.10
75072;BME280;63651;55.728;38.022;2023-07-13T06:19:19;98538.16;;;19.63;48.19
75072;BME280;63651;55.728;38.022;2023-07-13T06:24:21;98534.91;;;19.51;48.59
75072;BME280;63651;55.728;38.022;2023-07-13T06:29:22;98524.47;;;19.53;48.66
75072;BME280;63651;55.728;38.022;2023-07-13T06:34:23;98519.78;;;19.54;48.30
75072;BME280;63651;55.728;38.022;2023-07-13T06:39:24;98513.97;;;19.50;48.26
75072;BME280;63651;55.728;38.022;2023-07-13T06:44:26;98510.13;;;19.56;47.77
75072;BME280;63651;55.728;38.022;2023-07-13T06:49:27;98502.34;;;19.63;47.82
75072;BME280;63651;55.728;38.022;2023-07-13T06:54:28;98517.16;;;19.67;47.31
75072;BME280;63651;55.728;38.022;2023-07-13T06:59:29;98519.00;;;19.77;47.21
75072;BME280;63651;55.728;38.022;2023-07-13T07:04:30;98519.91;;;19.96;46.75
75072;BME280;63651;55.728;38.022;2023-07-13T07:09:31;98523.44;;;20.02;46.01
75072;BME280;63651;55.728;38.022;2023-07-13T07:14:32;98523.50;;;19.97;46.09
75072;BME280;63651;55.728;38.022;2023-07-13T07:19:35;98537.56;;;19.95;45.73
75072;BME280;63651;55.728;38.022;2023-07-13T07:24:36;98531.66;;;20.07;45.25
75072;BME280;63651;55.728;38.022;2023-07-13T07:29:37;98523.63;;;20.10;45.57
75072;BME280;63651;55.728;38.022;2023-07-13T07:34:38;98538.91;;;19.98;46.54
75072;BME280;63651;55.728;38.022;2023-07-13T07:39:39;98531.88;;;19.87;46.75
75072;BME280;63651;55.728;38.022;2023-07-13T07:44:40;98533.22;;;19.89;47.42
75072;BME280;63651;55.728;38.022;2023-07-13T07:49:42;98536.78;;;19.90;47.37
75072;BME280;63651;55.728;38.022;2023-07-13T07:54:44;98560.78;;;19.89;47.20
75072;BME280;63651;55.728;38.022;2023-07-13T07:59:45;98559.69;;;20.14;46.56
75072;BME280;63651;55.728;38.022;2023-07-13T08:04:46;98553.31;;;20.19;46.60
75072;BME280;63651;55.728;38.022;2023-07-13T08:09:47;98552.47;;;20.18;46.73
75072;BME280;63651;55.728;38.022;2023-07-13T08:14:51;98558.00;;;20.18;46.85
75072;BME280;63651;55.728;38.022;2023-07-13T08:19:58;98552.47;;;20.18;46.61
75072;BME280;63651;55.728;38.022;2023-07-13T08:24:59;98553.53;;;20.22;46.74
75072;BME280;63651;55.728;38.022;2023-07-13T08:30:00;98556.31;;;20.22;46.45
75072;BME280;63651;55.728;38.022;2023-07-13T08:35:01;98559.00;;;20.27;46.40
75072;BME280;63651;55.728;38.022;2023-07-13T08:40:03;98557.00;;;20.33;46.56
75072;BME280;63651;55.728;38.022;2023-07-13T08:45:52;98539.78;;;20.46;46.79
75072;BME280;63651;55.728;38.022;2023-07-13T08:50:55;98533.38;;;20.51;46.85
75072;BME280;63651;55.728;38.022;2023-07-13T08:55:59;98546.00;;;20.57;46.65
75072;BME280;63651;55.728;38.022;2023-07-13T09:12:02;98544.97;;;20.71;45.29
75072;BME280;63651;55.728;38.022;2023-07-13T09:17:20;98548.06;;;20.89;45.62
75072;BME280;63651;55.728;38.022;2023-07-13T09:22:25;98562.84;;;20.98;45.36
75072;BME280;63651;55.728;38.022;2023-07-13T09:27:43;98580.69;;;20.87;44.77
75072;BME280;63651;55.728;38.022;2023-07-13T09:32:52;98580.56;;;20.73;45.26
75072;BME280;63651;55.728;38.022;2023-07-13T09:37:58;98586.44;;;20.42;46.33
75072;BME280;63651;55.728;38.022;2023-07-13T09:43:00;98589.38;;;20.51;46.47
75072;BME280;63651;55.728;38.022;2023-07-13T09:48:20;98589.34;;;20.27;47.28
75072;BME280;63651;55.728;38.022;2023-07-13T09:53:21;98584.28;;;20.10;47.81
75072;BME280;63651;55.728;38.022;2023-07-13T09:58:26;98571.78;;;20.18;47.87
75072;BME280;63651;55.728;38.022;2023-07-13T10:03:34;98564.22;;;20.29;47.45
75072;BME280;63651;55.728;38.022;2023-07-13T10:08:38;98573.66;;;20.23;47.63
75072;BME280;63651;55.728;38.022;2023-07-13T10:13:46;98573.97;;;20.21;47.69
75072;BME280;63651;55.728;38.022;2023-07-13T10:18:53;98552.25;;;20.14;48.02
75072;BME280;63651;55.728;38.022;2023-07-13T10:24:00;98568.84;;;20.33;48.08
75072;BME280;63651;55.728;38.022;2023-07-13T10:29:09;98565.56;;;20.31;47.81
75072;BME280;63651;55.728;38.022;2023-07-13T10:34:13;98556.41;;;20.36;47.48
75072;BME280;63651;55.728;38.022;2023-07-13T10:39:20;98566.34;;;20.37;48.17
75072;BME280;63651;55.728;38.022;2023-07-13T10:44:25;98567.22;;;20.32;47.94
75072;BME280;63651;55.728;38.022;2023-07-13T10:49:31;98578.53;;;20.31;47.67
75072;BME280;63651;55.728;38.022;2023-07-13T10:54:33;98586.63;;;20.22;48.05
75072;BME280;63651;55.728;38.022;2023-07-13T10:59:38;98573.50;;;20.14;48.60
75072;BME280;63651;55.728;38.022;2023-07-13T11:04:46;98582.56;;;20.14;48.28
75072;BME280;63651;55.728;38.022;2023-07-13T11:09:52;98581.53;;;20.10;48.71
75072;BME280;63651;55.728;38.022;2023-07-13T11:35:35;98588.53;;;19.98;49.15
75072;BME280;63651;55.728;38.022;2023-07-13T11:40:36;98584.66;;;19.99;49.52
75072;BME280;63651;55.728;38.022;2023-07-13T11:45:38;98587.44;;;19.99;49.46
75072;BME280;63651;55.728;38.022;2023-07-13T11:50:39;98594.91;;;19.93;49.55
75072;BME280;63651;55.728;38.022;2023-07-13T11:55:40;98584.22;;;19.87;49.43
75072;BME280;63651;55.728;38.022;2023-07-13T12:00:41;98587.00;;;19.87;49.53
75072;BME280;63651;55.728;38.022;2023-07-13T12:06:01;98601.09;;;19.80;49.72
75072;BME280;63651;55.728;38.022;2023-07-13T12:11:05;98581.31;;;19.73;50.06
75072;BME280;63651;55.728;38.022;2023-07-13T12:16:15;98598.19;;;19.66;50.05
75072;BME280;63651;55.728;38.022;2023-07-13T12:21:18;98593.59;;;19.52;51.06
75072;BME280;63651;55.728;38.022;2023-07-13T12:26:22;98589.78;;;19.42;51.61
75072;BME280;63651;55.728;38.022;2023-07-13T12:31:50;98588.31;;;19.16;52.85
75072;BME280;63651;55.728;38.022;2023-07-13T12:36:55;98579.28;;;19.05;53.48
75072;BME280;63651;55.728;38.022;2023-07-13T12:47:20;98581.53;;;18.98;54.58
75072;BME280;63651;55.728;38.022;2023-07-13T12:52:27;98572.47;;;18.93;55.07
75072;BME280;63651;55.728;38.022;2023-07-13T12:57:31;98571.94;;;18.91;55.26
75072;BME280;63651;55.728;38.022;2023-07-13T13:02:33;98572.59;;;18.72;55.76
75072;BME280;63651;55.728;38.022;2023-07-13T13:07:35;98583.34;;;18.69;56.30
75072;BME280;63651;55.728;38.022;2023-07-13T13:12:36;98572.06;;;18.60;57.05
75072;BME280;63651;55.728;38.022;2023-07-13T13:17:38;98575.63;;;18.61;56.49
75072;BME280;63651;55.728;38.022;2023-07-13T13:22:39;98576.78;;;18.44;57.03
75072;BME280;63651;55.728;38.022;2023-07-13T13:27:41;98566.06;;;18.43;57.13
75072;BME280;63651;55.728;38.022;2023-07-13T13:32:45;98563.88;;;18.40;57.47
75072;BME280;63651;55.728;38.022;2023-07-13T13:37:47;98579.06;;;18.27;57.62
75072;BME280;63651;55.728;38.022;2023-07-13T13:42:51;98578.78;;;18.18;58.11
75072;BME280;63651;55.728;38.022;2023-07-13T13:47:54;98568.34;;;18.26;57.66
75072;BME280;63651;55.728;38.022;2023-07-13T13:52:55;98562.81;;;18.31;57.39
75072;BME280;63651;55.728;38.022;2023-07-13T13:57:56;98564.19;;;18.28;57.30
75072;BME280;63651;55.728;38.022;2023-07-13T14:02:57;98547.44;;;18.30;57.36
75072;BME280;63651;55.728;38.022;2023-07-13T14:07:58;98549.34;;;18.19;57.54
75072;BME280;63651;55.728;38.022;2023-07-13T14:13:00;98548.25;;;18.20;57.49
75072;BME280;63651;55.728;38.022;2023-07-13T14:18:01;98560.94;;;18.06;57.50
75072;BME280;63651;55.728;38.022;2023-07-13T14:23:02;98570.84;;;17.97;57.45
75072;BME280;63651;55.728;38.022;2023-07-13T14:28:18;98536.50;;;17.99;57.82
75072;BME280;63651;55.728;38.022;2023-07-13T14:33:20;98541.72;;;18.01;57.81
75072;BME280;63651;55.728;38.022;2023-07-13T14:38:21;98541.47;;;17.82;58.39
75072;BME280;63651;55.728;38.022;2023-07-13T14:43:22;98560.72;;;17.67;59.36
75072;BME280;63651;55.728;38.022;2023-07-13T14:48:25;98553.00;;;17.84;58.93
75072;BME280;63651;55.728;38.022;2023-07-13T14:53:27;98554.94;;;17.88;58.78
75072;BME280;63651;55.728;38.022;2023-07-13T14:58:28;98548.59;;;17.88;58.74
75072;BME280;63651;55.728;38.022;2023-07-13T15:03:30;98540.91;;;17.90;58.67
75072;BME280;63651;55.728;38.022;2023-07-13T15:08:31;98536.78;;;17.87;58.75
75072;BME280;63651;55.728;38.022;2023-07-13T15:13:32;98553.00;;;17.94;58.57
75072;BME280;63651;55.728;38.022;2023-07-13T15:18:33;98549.09;;;18.26;58.09
75072;BME280;63651;55.728;38.022;2023-07-13T15:23:35;98560.28;;;18.44;57.38
75072;BME280;63651;55.728;38.022;2023-07-13T15:28:36;98563.72;;;17.96;59.01
75072;BME280;63651;55.728;38.022;2023-07-13T15:33:37;98554.94;;;17.78;59.77
75072;BME280;63651;55.728;38.022;2023-07-13T15:38:38;98545.31;;;17.66;60.12
75072;BME280;63651;55.728;38.022;2023-07-13T15:43:40;98537.91;;;17.56;60.28
75072;BME280;63651;55.728;38.022;2023-07-13T15:48:41;98544.50;;;17.45;60.67
75072;BME280;63651;55.728;38.022;2023-07-13T15:53:42;98538.19;;;17.34;61.02
75072;BME280;63651;55.728;38.022;2023-07-13T15:58:43;98530.50;;;17.36;61.40
75072;BME280;63651;55.728;38.022;2023-07-13T16:03:46;98537.09;;;17.50;61.22
75072;BME280;63651;55.728;38.022;2023-07-13T16:08:48;98526.09;;;17.50;60.90
75072;BME280;63651;55.728;38.022;2023-07-13T16:13:51;98524.72;;;17.58;60.67
75072;BME280;63651;55.728;38.022;2023-07-13T16:18:56;98521.44;;;17.56;61.09
75072;BME280;63651;55.728;38.022;2023-07-13T16:24:00;98526.38;;;17.54;61.30
75072;BME280;63651;55.728;38.022;2023-07-13T16:29:01;98526.94;;;17.46;61.69
75072;BME280;63651;55.728;38.022;2023-07-13T16:34:02;98529.41;;;17.47;61.83
75072;BME280;63651;55.728;38.022;2023-07-13T16:39:12;98514.47;;;18.25;60.41
75072;BME280;63651;55.728;38.022;2023-07-13T16:44:18;98512.66;;;18.59;58.62
75072;BME280;63651;55.728;38.022;2023-07-13T16:49:34;98514.94;;;18.42;58.79
75072;BME280;63651;55.728;38.022;2023-07-13T16:54:38;98500.34;;;18.46;58.44
75072;BME280;63651;55.728;38.022;2023-07-13T16:59:40;98503.31;;;18.55;58.45
75072;BME280;63651;55.728;38.022;2023-07-13T17:04:41;98504.69;;;18.63;58.44
75072;BME280;63651;55.728;38.022;2023-07-13T17:09:44;98495.28;;;18.69;58.17
75072;BME280;63651;55.728;38.022;2023-07-13T17:14:46;98498.31;;;18.72;58.18
75072;BME280;63651;55.728;38.022;2023-07-13T17:19:51;98506.78;;;18.81;58.06
75072;BME280;63651;55.728;38.022;2023-07-13T17:24:53;98505.38;;;19.23;57.97
75072;BME280;63651;55.728;38.022;2023-07-13T17:29:54;98502.25;;;19.00;58.46
75072;BME280;63651;55.728;38.022;2023-07-13T17:34:56;98504.25;;;18.90;58.98
75072;BME280;63651;55.728;38.022;2023-07-13T17:39:57;98505.94;;;18.85;59.67
75072;BME280;63651;55.728;38.022;2023-07-13T17:44:58;98510.06;;;18.83;59.51
75072;BME280;63651;55.728;38.022;2023-07-13T17:49:59;98507.59;;;18.81;60.23
75072;BME280;63651;55.728;38.022;2023-07-13T17:55:00;98510.03;;;18.88;59.86
75072;BME280;63651;55.728;38.022;2023-07-13T18:00:03;98505.09;;;18.85;59.82
75072;BME280;63651;55.728;38.022;2023-07-13T18:05:24;98516.44;;;18.73;60.89
75072;BME280;63651;55.728;38.022;2023-07-13T18:10:25;98517.28;;;18.74;60.60
75072;BME280;63651;55.728;38.022;2023-07-13T18:15:29;98517.03;;;18.70;60.88
75072;BME280;63651;55.728;38.022;2023-07-13T18:20:32;98522.81;;;18.69;61.69
75072;BME280;63651;55.728;38.022;2023-07-13T18:25:33;98529.13;;;18.69;61.17
75072;BME280;63651;55.728;38.022;2023-07-13T18:30:35;98534.63;;;18.69;61.29
75072;BME280;63651;55.728;38.022;2023-07-13T18:35:37;98531.34;;;18.67;61.63
75072;BME280;63651;55.728;38.022;2023-07-13T18:40:38;98540.69;;;18.66;61.79
75072;BME280;63651;55.728;38.022;2023-07-13T18:45:40;98531.88;;;18.69;61.07
75072;BME280;63651;55.728;38.022;2023-07-13T18:50:41;98530.81;;;18.65;61.39
75072;BME280;63651;55.728;38.022;2023-07-13T18:55:45;98530.53;;;18.62;61.89
75072;BME280;63651;55.728;38.022;2023-07-13T19:00:49;98527.50;;;18.63;61.85
75072;BME280;63651;55.728;38.022;2023-07-13T19:05:51;98524.97;;;19.16;63.48
75072;BME280;63651;55.728;38.022;2023-07-13T19:10:53;98512.78;;;18.88;61.80
75072;BME280;63651;55.728;38.022;2023-07-13T19:15:55;98512.28;;;18.81;61.63
75072;BME280;63651;55.728;38.022;2023-07-13T19:20:58;98503.56;;;18.69;61.65
75072;BME280;63651;55.728;38.022;2023-07-13T19:26:32;98519.50;;;18.72;61.41
75072;BME280;63651;55.728;38.022;2023-07-13T19:31:35;98521.16;;;18.68;61.61
75072;BME280;63651;55.728;38.022;2023-07-13T19:36:38;98512.13;;;18.62;61.14
75072;BME280;63651;55.728;38.022;2023-07-13T19:41:40;98528.84;;;18.71;60.95
75072;BME280;63651;55.728;38.022;2023-07-13T19:46:42;98536.88;;;18.62;60.66
75072;BME280;63651;55.728;38.022;2023-07-13T19:51:43;98540.47;;;18.47;61.04
75072;BME280;63651;55.728;38.022;2023-07-13T19:56:45;98542.38;;;18.52;60.96
75072;BME280;63651;55.728;38.022;2023-07-13T20:01:46;98550.13;;;18.40;61.86
75072;BME280;63651;55.728;38.022;2023-07-13T20:06:47;98556.69;;;18.49;61.38
75072;BME280;63651;55.728;38.022;2023-07-13T20:11:49;98552.03;;;18.49;61.03
75072;BME280;63651;55.728;38.022;2023-07-13T20:16:55;98558.66;;;18.43;61.26
75072;BME280;63651;55.728;38.022;2023-07-13T20:21:58;98563.59;;;18.46;61.30
75072;BME280;63651;55.728;38.022;2023-07-13T20:26:59;98561.41;;;18.38;61.25
75072;BME280;63651;55.728;38.022;2023-07-13T20:32:00;98561.16;;;18.35;61.59
75072;BME280;63651;55.728;38.022;2023-07-13T20:37:03;98565.28;;;18.32;62.20
75072;BME280;63651;55.728;38.022;2023-07-13T20:42:15;98568.56;;;18.39;61.44
75072;BME280;63651;55.728;38.022;2023-07-13T20:47:21;98569.41;;;18.30;62.05
75072;BME280;63651;55.728;38.022;2023-07-13T20:52:24;98568.56;;;18.39;62.13
75072;BME280;63651;55.728;38.022;2023-07-13T20:57:25;98560.59;;;18.38;62.14
75072;BME280;63651;55.728;38.022;2023-07-13T21:02:32;98554.81;;;18.39;62.34
75072;BME280;63651;55.728;38.022;2023-07-13T21:07:34;98560.88;;;18.36;61.80
75072;BME280;63651;55.728;38.022;2023-07-13T21:12:35;98555.66;;;18.35;62.56
75072;BME280;63651;55.728;38.022;2023-07-13T21:17:36;98551.78;;;18.41;61.70
75072;BME280;63651;55.728;38.022;2023-07-13T21:22:37;98558.09;;;18.41;62.17
75072;BME280;63651;55.728;38.022;2023-07-13T21:27:38;98562.78;;;18.41;61.41
75072;BME280;63651;55.728;38.022;2023-07-13T21:32:40;98558.69;;;18.33;61.85
75072;BME280;63651;55.728;38.022;2023-07-13T21:37:41;98557.56;;;18.39;61.25
75072;BME280;63651;55.728;38.022;2023-07-13T21:42:43;98564.72;;;18.40;61.59
75072;BME280;63651;55.728;38.022;2023-07-13T21:47:44;98566.06;;;18.43;62.06
75072;BME280;63651;55.728;38.022;2023-07-13T21:52:46;98561.94;;;18.45;61.50
75072;BME280;63651;55.728;38.022;2023-07-13T21:57:50;98556.72;;;18.44;62.07
75072;BME280;63651;55.728;38.022;2023-07-13T22:02:55;98550.97;;;18.40;61.88
75072;BME280;63651;55.728;38.022;2023-07-13T22:07:58;98567.72;;;18.49;61.76
75072;BME280;63651;55.728;38.022;2023-07-13T22:12:59;98563.88;;;18.45;62.13
75072;BME280;63651;55.728;38.022;2023-07-13T22:18:05;98539.44;;;18.38;61.83
75072;BME280;63651;55.728;38.022;2023-07-13T22:23:16;98551.78;;;18.41;61.74
75072;BME280;63651;55.728;38.022;2023-07-13T22:28:20;98558.09;;;18.46;61.45
75072;BME280;63651;55.728;38.022;2023-07-13T22:33:25;98536.94;;;18.37;61.73
75072;BME280;63651;55.728;38.022;2023-07-13T22:38:26;98553.72;;;18.40;61.69
75072;BME280;63651;55.728;38.022;2023-07-13T22:43:29;98551.78;;;18.41;60.92
75072;BME280;63651;55.728;38.022;2023-07-13T22:48:38;98547.13;;;18.36;60.80
75072;BME280;63651;55.728;38.022;2023-07-13T22:53:40;98544.91;;;18.38;61.14
75072;BME280;63651;55.728;38.022;2023-07-13T22:58:42;98546.56;;;18.39;60.84
75072;BME280;63651;55.728;38.022;2023-07-13T23:03:44;98545.22;;;18.32;60.97
75072;BME280;63651;55.728;38.022;2023-07-13T23:08:45;98537.78;;;18.37;60.87
75072;BME280;63651;55.728;38.022;2023-07-13T23:13:48;98546.28;;;18.41;61.34
75072;BME280;63651;55.728;38.022;2023-07-13T23:18:49;98546.81;;;18.43;61.46
75072;BME280;63651;55.728;38.022;2023-07-13T23:23:52;98541.03;;;18.44;61.02
75072;BME280;63651;55.728;38.022;2023-07-13T23:28:55;98544.06;;;18.48;61.48
75072;BME280;63651;55.728;38.022;2023-07-13T23:33:57;98541.59;;;18.46;61.76
75072;BME280;63651;55.728;38.022;2023-07-13T23:38:59;98541.59;;;18.46;61.59
75072;BME280;63651;55.728;38.022;2023-07-13T23:44:00;98535.25;;;18.46;61.53
75072;BME280;63651;55.728;38.022;2023-07-13T23:49:29;98535.25;;;18.46;62.22
75072;BME280;63651;55.728;38.022;2023-07-13T23:54:31;98538.28;;;18.49;61.71
75072;BME280;63651;55.728;38.022;2023-07-13T23:59:32;98544.31;;;18.51;61.66
